TimeAEST,TemperatureF,Dew PointF,Humidity,Sea Level PressureIn,VisibilityMPH,Wind Direction,Wind SpeedMPH,Gust SpeedMPH,PrecipitationIn,Events,Conditions,WindDirDegrees,DateUTC
12:00 AM,32,31,97,30.25,,NE,3.5,,,,,40,2013-06-09 14:00:00
12:04 AM,32.0,32.0,100,30.21,3.7,NNE,2.3,-,N/A,,Mostly Cloudy,30,2013-06-09 14:04:00
12:09 AM,32.0,32.0,100,30.18,0.6,Calm,Calm,-,N/A,,Mostly Cloudy,0,2013-06-09 14:09:00
12:30 AM,32.0,30.2,93,30.18,0.1,Calm,Calm,-,N/A,,Mostly Cloudy,0,2013-06-09 14:30:00
1:00 AM,31,30,96,30.23,,North,2.3,,,,,10,2013-06-09 15:00:00
1:00 AM,30.2,30.2,100,30.18,0.2,North,2.3,-,N/A,Snow,Light Snow Showers,10,2013-06-09 15:00:00
1:14 AM,30.2,30.2,100,30.18,0.6,North,2.3,-,N/A,,Mostly Cloudy,350,2013-06-09 15:14:00
1:30 AM,30.2,30.2,100,30.18,0.9,Calm,Calm,-,N/A,,Scattered Clouds,0,2013-06-09 15:30:00
1:32 AM,30.2,30.2,100,30.18,0.7,Calm,Calm,-,N/A,,Scattered Clouds,0,2013-06-09 15:32:00
2:00 AM,30.2,30.2,100,30.18,0.2,Calm,Calm,-,N/A,,Mostly Cloudy,0,2013-06-09 16:00:00
2:11 AM,30.2,30.2,100,30.18,0.1,Calm,Calm,-,N/A,,Overcast,0,2013-06-09 16:11:00
2:30 AM,30.2,30.2,100,30.18,0.1,Calm,Calm,-,N/A,,Overcast,0,2013-06-09 16:30:00
2:51 AM,30.2,30.2,100,30.15,0.2,Calm,Calm,-,N/A,,Scattered Clouds,0,2013-06-09 16:51:00
3:00 AM,31,31,100,30.20,0,Calm,Calm,,,,,,2013-06-09 17:00:00
3:00 AM,32.0,32.0,100,30.15,0.2,Calm,Calm,-,N/A,,Scattered Clouds,0,2013-06-09 17:00:00
3:30 AM,30.2,30.2,100,30.15,0.5,North,5.8,-,N/A,,Scattered Clouds,350,2013-06-09 17:30:00
3:31 AM,30.2,30.2,100,30.15,0.7,North,5.8,-,N/A,,Mostly Cloudy,350,2013-06-09 17:31:00
3:52 AM,32.0,32.0,100,30.15,-9999.0,Calm,Calm,-,N/A,,Mostly Cloudy,0,2013-06-09 17:52:00
4:00 AM,32,32,99,30.20,,Calm,Calm,,,,,,2013-06-09 18:00:00
4:00 AM,32.0,32.0,100,30.15,4.3,Calm,Calm,-,N/A,,Overcast,0,2013-06-09 18:00:00
4:08 AM,32.0,32.0,100,30.15,4.3,Calm,Calm,-,N/A,,Overcast,0,2013-06-09 18:08:00
4:12 AM,32.0,32.0,100,30.15,3.7,Calm,Calm,-,N/A,,Overcast,0,2013-06-09 18:12:00
4:27 AM,32.0,32.0,100,30.15,5.6,East,3.5,-,N/A,,Mostly Cloudy,80,2013-06-09 18:27:00
4:30 AM,32.0,32.0,100,30.15,5.6,East,3.5,-,N/A,,Scattered Clouds,90,2013-06-09 18:30:00
4:31 AM,32.0,32.0,100,30.15,6.2,East,3.5,-,N/A,Fog,Patches of Fog,100,2013-06-09 18:31:00
4:33 AM,32.0,32.0,100,30.15,6.2,ESE,3.5,-,N/A,,Scattered Clouds,120,2013-06-09 18:33:00
5:00 AM,32.0,32.0,100,30.12,6.2,SSW,4.6,-,N/A,Fog,Patches of Fog,210,2013-06-09 19:00:00
5:30 AM,-9999,-9999,N/A,30.15,6.2,SW,4.6,-,N/A,Fog,Mostly Cloudy,230,2013-06-09 19:30:00
6:00 AM,30,,,30.18,,East,3.5,,,,,80,2013-06-09 20:00:00
6:00 AM,-9999,-9999,N/A,30.12,6.2,East,3.5,-,N/A,,Mostly Cloudy,80,2013-06-09 20:00:00
6:30 AM,32.0,32.0,100,30.15,6.2,SSE,1.2,-,N/A,,Mostly Cloudy,150,2013-06-09 20:30:00
7:00 AM,33,32,96,30.17,,Calm,Calm,,,,,,2013-06-09 21:00:00
7:00 AM,32.0,32.0,100,30.12,6.2,Calm,Calm,-,N/A,,Mostly Cloudy,0,2013-06-09 21:00:00
7:30 AM,33.8,33.8,100,30.12,6.2,Calm,Calm,-,N/A,,Mostly Cloudy,0,2013-06-09 21:30:00
8:00 AM,35.6,33.8,93,30.15,5.0,Calm,Calm,-,N/A,,Mostly Cloudy,0,2013-06-09 22:00:00
8:30 AM,37.4,35.6,93,30.15,5.0,Calm,Calm,-,N/A,,Haze,0,2013-06-09 22:30:00
8:47 AM,37.4,35.6,93,30.15,5.0,Calm,Calm,-,N/A,,Mostly Cloudy,0,2013-06-09 22:47:00
9:00 AM,37,36,97,30.19,,Calm,Calm,,,,Overcast,,2013-06-09 23:00:00
9:00 AM,37.4,37.4,100,30.15,5.0,Calm,Calm,-,N/A,,Mostly Cloudy,0,2013-06-09 23:00:00
9:30 AM,39.2,37.4,93,30.12,5.6,Calm,Calm,-,N/A,,Mostly Cloudy,0,2013-06-09 23:30:00
10:00 AM,40,38,92,30.17,,Calm,Calm,,,,,,2013-06-10 00:00:00
10:00 AM,41.0,39.2,93,30.12,5.6,Calm,Calm,-,N/A,,Mostly Cloudy,0,2013-06-10 00:00:00
10:30 AM,41.0,39.2,93,30.12,5.6,South,3.5,-,N/A,,Overcast,180,2013-06-10 00:30:00
11:00 AM,42.8,41.0,93,30.12,5.0,Calm,Calm,-,N/A,,Mostly Cloudy,0,2013-06-10 01:00:00
11:30 AM,44.6,41.0,87,30.12,5.0,Calm,Calm,-,N/A,,Haze,0,2013-06-10 01:30:00
11:45 AM,44.6,42.8,93,30.12,3.1,SSW,3.5,-,N/A,,Haze,200,2013-06-10 01:45:00
12:00 PM,45,44,93,30.15,3,SSW,1.2,,,,Overcast,200,2013-06-10 02:00:00
12:00 PM,44.6,44.6,100,30.09,2.5,South,1.2,-,N/A,,Light Haze,190,2013-06-10 02:00:00
12:25 PM,46.4,44.6,93,30.09,3.7,SSW,2.3,-,N/A,,Haze,200,2013-06-10 02:25:00
12:30 PM,46.4,44.6,93,30.09,4.3,South,2.3,-,N/A,,Haze,170,2013-06-10 02:30:00
1:00 PM,50,46,82,30.12,,ESE,1.2,,,,,120,2013-06-10 03:00:00
1:00 PM,50.0,46.4,87,30.09,4.3,ESE,1.2,-,N/A,,Haze,120,2013-06-10 03:00:00
1:23 PM,51.8,46.4,82,30.09,5.6,SW,3.5,-,N/A,,Mostly Cloudy,220,2013-06-10 03:23:00
1:30 PM,55.4,48.2,77,30.09,5.6,West,1.2,-,N/A,,Mostly Cloudy,260,2013-06-10 03:30:00
2:00 PM,55.4,46.4,72,30.06,6.2,NNW,9.2,-,N/A,,Mostly Cloudy,340,2013-06-10 04:00:00
2:30 PM,57.2,46.4,67,30.06,6.2,NNW,15.0,-,N/A,,Scattered Clouds,340,2013-06-10 04:30:00
3:00 PM,56,45,56,30.12,,NNW,12.7,,,,,330,2013-06-10 05:00:00
3:00 PM,57.2,44.6,63,30.06,6.2,NNW,12.7,-,N/A,,Partly Cloudy,330,2013-06-10 05:00:00
3:30 PM,55.4,46.4,72,30.06,6.2,NNW,12.7,-,N/A,,Partly Cloudy,340,2013-06-10 05:30:00
4:00 PM,54,46,67,30.10,,NNW,9.2,,,,,340,2013-06-10 06:00:00
4:00 PM,53.6,46.4,77,30.06,6.2,NNW,9.2,-,N/A,,Partly Cloudy,340,2013-06-10 06:00:00
4:30 PM,51.8,46.4,82,30.06,6.2,NNW,9.2,-,N/A,,Partly Cloudy,340,2013-06-10 06:30:00
5:00 PM,50.0,44.6,82,30.06,6.2,NNW,10.4,-,N/A,,Partly Cloudy,330,2013-06-10 07:00:00
5:30 PM,48.2,44.6,87,30.06,6.2,North,10.4,-,N/A,,Partly Cloudy,350,2013-06-10 07:30:00
6:00 PM,48,44,83,30.13,,North,9.2,,,,,0,2013-06-10 08:00:00
6:00 PM,48.2,44.6,87,30.09,6.2,North,9.2,-,N/A,,Partly Cloudy,360,2013-06-10 08:00:00
6:30 PM,48.2,44.6,87,30.09,6.2,North,12.7,-,N/A,,Partly Cloudy,350,2013-06-10 08:30:00
7:00 PM,48,45,84,30.13,,North,13.8,,,,,350,2013-06-10 09:00:00
7:00 PM,48.2,44.6,87,30.09,6.2,North,13.8,-,N/A,,Partly Cloudy,350,2013-06-10 09:00:00
7:30 PM,44.6,42.8,93,30.09,6.2,NNW,11.5,-,N/A,,Partly Cloudy,330,2013-06-10 09:30:00
8:00 PM,46.4,44.6,93,30.09,6.2,North,10.4,-,N/A,,Partly Cloudy,360,2013-06-10 10:00:00
8:30 PM,46.4,42.8,87,30.12,6.2,North,9.2,-,N/A,,Partly Cloudy,350,2013-06-10 10:30:00
9:00 PM,45,43,90,30.16,,NNW,8.1,,,,,330,2013-06-10 11:00:00
9:00 PM,44.6,42.8,93,30.12,6.2,NNW,8.1,-,N/A,,Unknown,330,2013-06-10 11:00:00
9:30 PM,48.2,44.6,87,30.12,6.2,North,8.1,-,N/A,,Overcast,360,2013-06-10 11:30:00
10:00 PM,47,45,88,30.15,,North,4.6,,,,,10,2013-06-10 12:00:00
10:00 PM,48.2,44.6,87,30.12,6.2,North,4.6,-,N/A,,Overcast,10,2013-06-10 12:00:00
10:30 PM,48.2,44.6,87,30.12,6.2,North,5.8,-,N/A,,Overcast,10,2013-06-10 12:30:00
11:00 PM,44.6,44.6,100,30.12,6.2,WSW,2.3,-,N/A,,Scattered Clouds,240,2013-06-10 13:00:00
11:30 PM,46.4,46.4,100,30.09,6.2,NE,1.2,-,N/A,,Scattered Clouds,40,2013-06-10 13:30:00
11:58 PM,42.8,42.8,100,30.09,3.1,SE,5.8,-,N/A,,Scattered Clouds,130,2013-06-10 13:58:00